Sentinel — D5FA7 — position and weather

sailwx.info

Track history (hours):
 
Tides and Currents Weather Stations Pressure Air Temp Water Temp Dewpoint Dewpoint Depression Visibility Wind Speed Wind Dir Waves Ship Positions

Sentinel

Last reported at 2018-Sep-12 08:51 UTC. Time now 2018-Sep-21 08:35 UTC.
Position N 32°02' E 120°24'.
Warning: this ship's position is 8 days out of date.

Length 199 m; draft 6.9 m.

Type: Cargo ship. MMSI: 635961385.

Date/timePositionNaut miles runAvg speedWind from/ knotsBaromVisibWave heightAir tempDewpointWater temp
2018-Sep-12 08:51N 32°02' E 120°24'0 0.0
2018-Sep-12 08:27N 32°02' E 120°24'0 0.0
2018-Sep-12 07:57N 32°02' E 120°24'  
2018-Sep-06 14:26N 31°15' E 121°47'612.8
2018-Sep-06 13:55N 31°10' E 121°52'512.5
2018-Sep-06 13:30N 31°07' E 121°57'612.2
2018-Sep-06 13:02N 31°04' E 122°03'013.1
2018-Sep-06 13:00N 31°04' E 122°04'611.7
2018-Sep-06 12:30N 31°03' E 122°10'4 8.6
2018-Sep-06 12:03N 31°03' E 122°15'0 9.9
2018-Sep-06 12:01N 31°03' E 122°15'5 8.7
2018-Sep-06 11:28N 31°02' E 122°21'4 6.3
2018-Sep-06 10:53N 31°01' E 122°25'4 6.9
2018-Sep-06 10:21N 31°00' E 122°29'407 9.7
2018-Sep-04 16:29N 37°47' E 122°28'611.9
2018-Sep-04 15:56N 37°52' E 122°22'612.1
2018-Sep-04 15:27N 37°56' E 122°17'612.3
2018-Sep-04 15:00N 37°59' E 122°11'4912.3
2018-Sep-04 11:02N 38°24' E 121°18'  
Track history (hours):
 
Tides and Currents Weather Stations Pressure Air Temp Water Temp Dewpoint Dewpoint Depression Visibility Wind Speed Wind Dir Waves Ship Positions

Sentinel

Last reported at 2018-Sep-12 08:51 UTC. Time now 2018-Sep-21 08:35 UTC.
Position N 32°02' E 120°24'.
Warning: this ship's position is 8 days out of date.

Length 199 m; draft 6.9 m.

Type: Cargo ship. MMSI: 635961385.

Date/timePositionNaut miles runAvg speedWind from/ knotsBaromVisibWave heightAir tempDewpointWater temp
2018-Sep-12 08:51N 32°02' E 120°24'0 0.0
2018-Sep-12 08:27N 32°02' E 120°24'0 0.0
2018-Sep-12 07:57N 32°02' E 120°24'  
2018-Sep-06 14:26N 31°15' E 121°47'612.8
2018-Sep-06 13:55N 31°10' E 121°52'512.5
2018-Sep-06 13:30N 31°07' E 121°57'612.2
2018-Sep-06 13:02N 31°04' E 122°03'013.1
2018-Sep-06 13:00N 31°04' E 122°04'611.7
2018-Sep-06 12:30N 31°03' E 122°10'4 8.6
2018-Sep-06 12:03N 31°03' E 122°15'0 9.9
2018-Sep-06 12:01N 31°03' E 122°15'5 8.7
2018-Sep-06 11:28N 31°02' E 122°21'4 6.3
2018-Sep-06 10:53N 31°01' E 122°25'4 6.9
2018-Sep-06 10:21N 31°00' E 122°29'407 9.7
2018-Sep-04 16:29N 37°47' E 122°28'611.9
2018-Sep-04 15:56N 37°52' E 122°22'612.1
2018-Sep-04 15:27N 37°56' E 122°17'612.3
2018-Sep-04 15:00N 37°59' E 122°11'4912.3
2018-Sep-04 11:02N 38°24' E 121°18'  

Dump ship's entire track history